Time,TemperatureF,DewpointF,PressureIn,WindDirection,WindDirectionDegrees,WindSpeedMPH,WindSpeedGustMPH,Humidity,HourlyPrecipIn,Conditions,Clouds,dailyrainin,SoftwareType,DateUTC
2013-08-22 00:03:00,71.5,68.0,30.03,West,261,0.0,1.0,89,0.00,,,0.00,weatherlink.com 1.10,2013-08-22 04:03:00,
2013-08-22 00:18:00,71.2,68.0,30.04,West,261,0.0,0.0,90,0.00,,,0.00,weatherlink.com 1.10,2013-08-22 04:18:00,
2013-08-22 00:33:00,70.9,68.0,30.04,West,261,0.0,0.0,91,0.00,,,0.00,weatherlink.com 1.10,2013-08-22 04:33:00,
2013-08-22 00:48:00,70.6,68.0,30.05,West,261,0.0,1.0,92,0.00,,,0.00,weatherlink.com 1.10,2013-08-22 04:48:00,
2013-08-22 01:03:00,70.4,68.0,30.04,West,261,0.0,0.0,92,0.00,,,0.00,weatherlink.com 1.10,2013-08-22 05:03:00,
2013-08-22 01:18:00,70.3,68.0,30.04,West,260,0.0,0.0,93,0.00,,,0.00,weatherlink.com 1.10,2013-08-22 05:18:00,
2013-08-22 01:33:00,70.3,69.0,30.04,West,260,0.0,0.0,94,0.00,,,0.00,weatherlink.com 1.10,2013-08-22 05:33:00,
2013-08-22 01:48:00,70.4,69.0,30.05,WSW,256,0.0,1.0,94,0.00,,,0.00,weatherlink.com 1.10,2013-08-22 05:48:00,
2013-08-22 02:03:00,70.7,69.0,30.04,ESE,119,0.0,0.0,94,0.00,,,0.00,weatherlink.com 1.10,2013-08-22 06:03:00,
2013-08-22 02:19:00,70.8,69.0,30.05,ESE,119,0.0,0.0,94,0.00,,,0.00,weatherlink.com 1.10,2013-08-22 06:19:00,
2013-08-22 02:34:00,70.7,69.0,30.05,SE,132,1.0,2.0,94,0.00,,,0.00,weatherlink.com 1.10,2013-08-22 06:34:00,
2013-08-22 02:49:00,71.2,69.0,30.04,SE,132,1.0,6.0,94,0.00,,,0.00,weatherlink.com 1.10,2013-08-22 06:49:00,
2013-08-22 03:04:00,71.3,70.0,30.03,SW,231,0.0,2.0,94,0.00,,,0.00,weatherlink.com 1.10,2013-08-22 07:04:00,
2013-08-22 03:19:00,71.3,70.0,30.03,SSE,152,0.0,2.0,95,0.00,,,0.00,weatherlink.com 1.10,2013-08-22 07:19:00,
2013-08-22 03:34:00,71.3,70.0,30.02,SSE,152,0.0,1.0,95,0.00,,,0.00,weatherlink.com 1.10,2013-08-22 07:34:00,
2013-08-22 03:49:00,71.1,70.0,30.01,SSE,152,0.0,1.0,95,0.00,,,0.00,weatherlink.com 1.10,2013-08-22 07:49:00,
2013-08-22 04:04:00,70.8,69.0,30.01,SSE,152,0.0,1.0,95,0.00,,,0.00,weatherlink.com 1.10,2013-08-22 08:04:00,
2013-08-22 04:19:00,70.6,70.0,30.00,South,190,2.0,4.0,96,0.00,,,0.00,weatherlink.com 1.10,2013-08-22 08:19:00,
2013-08-22 04:34:00,70.4,69.0,30.01,WSW,257,0.0,2.0,96,0.00,,,0.00,weatherlink.com 1.10,2013-08-22 08:34:00,
2013-08-22 04:49:00,70.2,69.0,30.00,WSW,254,0.0,3.0,96,0.00,,,0.00,weatherlink.com 1.10,2013-08-22 08:49:00,
2013-08-22 05:04:00,69.9,69.0,29.99,WSW,250,0.0,1.0,96,0.00,,,0.00,weatherlink.com 1.10,2013-08-22 09:04:00,
2013-08-22 05:19:00,69.7,69.0,29.99,WSW,249,0.0,1.0,96,0.00,,,0.00,weatherlink.com 1.10,2013-08-22 09:19:00,
2013-08-22 05:34:00,69.5,68.0,29.99,SSE,157,0.0,1.0,96,0.00,,,0.00,weatherlink.com 1.10,2013-08-22 09:34:00,
2013-08-22 05:49:00,69.3,68.0,29.99,SSE,157,0.0,0.0,96,0.00,,,0.00,weatherlink.com 1.10,2013-08-22 09:49:00,
2013-08-22 06:04:00,69.0,68.0,30.01,SSE,157,0.0,1.0,97,0.00,,,0.00,weatherlink.com 1.10,2013-08-22 10:04:00,
2013-08-22 06:19:00,68.8,68.0,30.01,SSE,158,0.0,1.0,96,0.00,,,0.00,weatherlink.com 1.10,2013-08-22 10:19:00,
2013-08-22 06:34:00,68.5,68.0,30.01,SSE,158,0.0,1.0,97,0.00,,,0.00,weatherlink.com 1.10,2013-08-22 10:34:00,
2013-08-22 06:49:00,68.4,67.0,30.01,SSE,160,0.0,1.0,96,0.00,,,0.00,weatherlink.com 1.10,2013-08-22 10:49:00,
2013-08-22 08:34:00,71.8,70.0,30.02,SSE,160,0.0,1.0,93,0.00,,,0.00,weatherlink.com 1.10,2013-08-22 12:34:00,
2013-08-22 08:49:00,72.6,70.0,30.01,SSE,160,0.0,1.0,92,0.00,,,0.00,weatherlink.com 1.10,2013-08-22 12:49:00,
2013-08-22 09:04:00,73.9,70.0,30.01,SSE,153,0.0,3.0,88,0.00,,,0.00,weatherlink.com 1.10,2013-08-22 13:04:00,
2013-08-22 09:19:00,74.9,71.0,30.01,SSE,153,0.0,0.0,86,0.00,,,0.00,weatherlink.com 1.10,2013-08-22 13:19:00,
2013-08-22 09:34:00,76.8,72.0,30.02,SSE,153,0.0,1.0,85,0.00,,,0.00,weatherlink.com 1.10,2013-08-22 13:34:00,
2013-08-22 09:49:00,78.3,72.0,30.01,SSE,154,0.0,0.0,80,0.00,,,0.00,weatherlink.com 1.10,2013-08-22 13:49:00,
2013-08-22 10:04:00,79.8,71.0,30.02,SSE,154,0.0,1.0,75,0.00,,,0.00,weatherlink.com 1.10,2013-08-22 14:04:00,
2013-08-22 10:19:00,80.6,71.0,30.03,SSE,153,0.0,2.0,73,0.00,,,0.00,weatherlink.com 1.10,2013-08-22 14:19:00,
2013-08-22 10:34:00,79.4,71.0,30.02,WNW,286,0.0,4.0,75,0.00,,,0.00,weatherlink.com 1.10,2013-08-22 14:34:00,
2013-08-22 10:49:00,79.1,70.0,30.02,WNW,290,0.0,3.0,74,0.00,,,0.00,weatherlink.com 1.10,2013-08-22 14:49:00,
2013-08-22 11:04:00,78.7,71.0,30.02,WNW,285,0.0,3.0,78,0.00,,,0.00,weatherlink.com 1.10,2013-08-22 15:04:00,
2013-08-22 11:19:00,77.8,70.0,30.02,WSW,249,0.0,4.0,78,0.00,,,0.00,weatherlink.com 1.10,2013-08-22 15:19:00,
2013-08-22 11:34:00,78.7,69.0,30.02,West,265,0.0,4.0,71,0.00,,,0.00,weatherlink.com 1.10,2013-08-22 15:34:00,
2013-08-22 11:49:00,80.0,70.0,30.01,West,267,0.0,4.0,72,0.00,,,0.00,weatherlink.com 1.10,2013-08-22 15:49:00,
2013-08-22 12:05:00,80.7,70.0,30.01,West,260,0.0,4.0,70,0.00,,,0.00,weatherlink.com 1.10,2013-08-22 16:05:00,
2013-08-22 12:20:00,81.0,71.0,30.01,West,263,3.0,9.0,71,0.00,,,0.00,weatherlink.com 1.10,2013-08-22 16:20:00,
2013-08-22 12:35:00,80.4,71.0,30.00,WNW,287,2.0,7.0,72,0.00,,,0.00,weatherlink.com 1.10,2013-08-22 16:35:00,
2013-08-22 12:50:00,80.6,71.0,30.00,WNW,284,0.0,2.0,73,0.00,,,0.00,weatherlink.com 1.10,2013-08-22 16:50:00,
2013-08-22 13:05:00,81.2,71.0,29.99,West,277,0.0,3.0,70,0.00,,,0.00,weatherlink.com 1.10,2013-08-22 17:05:00,
2013-08-22 13:20:00,81.6,71.0,29.98,WSW,248,3.0,3.0,70,0.00,,,0.00,weatherlink.com 1.10,2013-08-22 17:20:00,
2013-08-22 13:35:00,82.5,72.0,29.98,WNW,288,1.0,7.0,70,0.00,,,0.00,weatherlink.com 1.10,2013-08-22 17:35:00,
2013-08-22 13:50:00,82.4,72.0,29.98,West,269,0.0,5.0,70,0.00,,,0.00,weatherlink.com 1.10,2013-08-22 17:50:00,
2013-08-22 14:05:00,82.8,73.0,29.97,West,273,0.0,6.0,73,0.00,,,0.00,weatherlink.com 1.10,2013-08-22 18:05:00,
2013-08-22 14:20:00,84.2,73.0,29.95,WSW,249,0.0,3.0,70,0.00,,,0.00,weatherlink.com 1.10,2013-08-22 18:20:00,
2013-08-22 14:35:00,85.2,74.0,29.95,WNW,288,0.0,7.0,68,0.00,,,0.00,weatherlink.com 1.10,2013-08-22 18:35:00,
2013-08-22 14:50:00,85.0,72.0,29.95,West,272,4.0,8.0,65,0.00,,,0.00,weatherlink.com 1.10,2013-08-22 18:50:00,
2013-08-22 15:05:00,85.3,71.0,29.94,WNW,287,5.0,9.0,63,0.00,,,0.00,weatherlink.com 1.10,2013-08-22 19:05:00,
2013-08-22 15:20:00,83.7,72.0,29.94,West,273,2.0,6.0,68,0.00,,,0.00,weatherlink.com 1.10,2013-08-22 19:20:00,
2013-08-22 15:35:00,82.9,72.0,29.94,SSW,196,1.0,6.0,69,0.00,,,0.00,weatherlink.com 1.10,2013-08-22 19:35:00,
2013-08-22 15:50:00,82.6,72.0,29.93,West,275,0.0,8.0,70,0.00,,,0.00,weatherlink.com 1.10,2013-08-22 19:50:00,
2013-08-22 16:05:00,82.5,71.0,29.92,WNW,287,1.0,5.0,69,0.00,,,0.00,weatherlink.com 1.10,2013-08-22 20:05:00,
2013-08-22 16:20:00,83.9,73.0,29.91,WNW,303,1.0,7.0,69,0.00,,,0.00,weatherlink.com 1.10,2013-08-22 20:20:00,
2013-08-22 16:35:00,84.7,72.0,29.91,WNW,290,3.0,8.0,65,0.00,,,0.00,weatherlink.com 1.10,2013-08-22 20:35:00,
2013-08-22 16:50:00,85.0,72.0,29.91,SW,232,2.0,6.0,65,0.00,,,0.00,weatherlink.com 1.10,2013-08-22 20:50:00,
2013-08-22 17:05:00,85.2,73.0,29.91,WNW,288,5.0,6.0,66,0.00,,,0.00,weatherlink.com 1.10,2013-08-22 21:05:00,
2013-08-22 17:20:00,85.2,73.0,29.91,WNW,291,0.0,7.0,66,0.00,,,0.00,weatherlink.com 1.10,2013-08-22 21:20:00,
2013-08-22 17:35:00,85.5,73.0,29.91,West,271,3.0,4.0,67,0.00,,,0.00,weatherlink.com 1.10,2013-08-22 21:35:00,
2013-08-22 17:50:00,85.6,73.0,29.90,WNW,297,0.0,6.0,65,0.00,,,0.00,weatherlink.com 1.10,2013-08-22 21:50:00,
2013-08-22 18:05:00,85.9,73.0,29.90,WSW,242,0.0,4.0,66,0.00,,,0.00,weatherlink.com 1.10,2013-08-22 22:05:00,
2013-08-22 18:20:00,85.8,73.0,29.90,WSW,257,0.0,5.0,65,0.00,,,0.00,weatherlink.com 1.10,2013-08-22 22:20:00,
2013-08-22 18:35:00,85.8,73.0,29.89,West,281,0.0,3.0,65,0.00,,,0.00,weatherlink.com 1.10,2013-08-22 22:35:00,
2013-08-22 18:50:00,85.9,73.0,29.89,West,273,0.0,3.0,65,0.00,,,0.00,weatherlink.com 1.10,2013-08-22 22:50:00,
2013-08-22 19:05:00,85.5,73.0,29.89,West,273,0.0,1.0,66,0.00,,,0.00,weatherlink.com 1.10,2013-08-22 23:05:00,
2013-08-22 19:20:00,83.7,73.0,29.88,West,273,0.0,1.0,69,0.00,,,0.00,weatherlink.com 1.10,2013-08-22 23:20:00,
2013-08-22 19:35:00,82.0,72.0,29.89,West,273,0.0,1.0,71,0.00,,,0.00,weatherlink.com 1.10,2013-08-22 23:35:00,
2013-08-22 19:50:00,80.3,72.0,29.89,West,273,0.0,0.0,75,0.00,,,0.00,weatherlink.com 1.10,2013-08-22 23:50:00,
2013-08-22 20:05:00,78.8,72.0,29.90,West,273,0.0,0.0,79,0.00,,,0.00,weatherlink.com 1.10,2013-08-23 00:05:00,
2013-08-22 20:20:00,77.2,71.0,29.90,West,273,0.0,0.0,82,0.00,,,0.00,weatherlink.com 1.10,2013-08-23 00:20:00,
2013-08-22 20:35:00,75.8,71.0,29.91,West,273,0.0,0.0,84,0.00,,,0.00,weatherlink.com 1.10,2013-08-23 00:35:00,
2013-08-22 20:50:00,74.9,70.0,29.91,West,273,0.0,2.0,84,0.00,,,0.00,weatherlink.com 1.10,2013-08-23 00:50:00,
2013-08-22 21:05:00,75.9,68.0,29.91,West,276,0.0,3.0,77,0.00,,,0.00,weatherlink.com 1.10,2013-08-23 01:05:00,
2013-08-22 21:20:00,76.0,69.0,29.92,West,276,0.0,0.0,80,0.00,,,0.00,weatherlink.com 1.10,2013-08-23 01:20:00,
2013-08-22 21:35:00,75.1,68.0,29.92,West,276,0.0,1.0,79,0.00,,,0.00,weatherlink.com 1.10,2013-08-23 01:35:00,
2013-08-22 21:50:00,74.8,66.0,29.92,West,276,0.0,2.0,75,0.00,,,0.00,weatherlink.com 1.10,2013-08-23 01:50:00,
2013-08-22 22:05:00,74.8,66.0,29.92,West,277,0.0,1.0,73,0.00,,,0.00,weatherlink.com 1.10,2013-08-23 02:05:00,
2013-08-22 22:20:00,74.6,65.0,29.93,West,277,0.0,0.0,72,0.00,,,0.00,weatherlink.com 1.10,2013-08-23 02:20:00,
2013-08-22 22:35:00,74.3,65.0,29.93,West,277,0.0,1.0,72,0.00,,,0.00,weatherlink.com 1.10,2013-08-23 02:35:00,
2013-08-22 22:50:00,74.0,67.0,29.93,West,276,1.0,1.0,78,0.00,,,0.00,weatherlink.com 1.10,2013-08-23 02:50:00,
2013-08-22 23:05:00,73.6,65.0,29.93,West,276,0.0,1.0,74,0.00,,,0.00,weatherlink.com 1.10,2013-08-23 03:05:00,
2013-08-22 23:20:00,73.6,65.0,29.93,West,277,0.0,0.0,74,0.00,,,0.00,weatherlink.com 1.10,2013-08-23 03:20:00,
2013-08-22 23:35:00,73.7,66.0,29.93,West,276,0.0,0.0,76,0.00,,,0.00,weatherlink.com 1.10,2013-08-23 03:35:00,
2013-08-22 23:50:00,72.7,66.0,29.93,West,277,0.0,0.0,80,0.00,,,0.00,weatherlink.com 1.10,2013-08-23 03:50:00,